sensor_id;sensor_type;location;lat;lon;timestamp;pressure;altitude;pressure_sealevel;temperature;humidity
16613;BME280;8419;52.358;9.752;2022-09-30T00:00:21;100075.00;;;19.33;40.96
16613;BME280;8419;52.358;9.752;2022-09-30T00:03:07;100084.00;;;19.33;40.88
16613;BME280;8419;52.358;9.752;2022-09-30T00:05:56;100084.00;;;19.30;40.87
16613;BME280;8419;52.358;9.752;2022-09-30T00:08:42;100079.00;;;19.32;40.81
16613;BME280;8419;52.358;9.752;2022-09-30T00:11:31;100084.00;;;19.27;40.87
16613;BME280;8419;52.358;9.752;2022-09-30T00:14:20;100083.00;;;19.27;40.89
16613;BME280;8419;52.358;9.752;2022-09-30T00:17:06;100079.00;;;19.02;41.33
16613;BME280;8419;52.358;9.752;2022-09-30T00:19:51;100079.00;;;18.94;41.45
16613;BME280;8419;52.358;9.752;2022-09-30T00:22:37;100083.00;;;18.88;41.49
16613;BME280;8419;52.358;9.752;2022-09-30T00:25:24;100080.00;;;18.93;41.33
16613;BME280;8419;52.358;9.752;2022-09-30T00:28:09;100087.00;;;18.81;41.55
16613;BME280;8419;52.358;9.752;2022-09-30T00:30:58;100086.00;;;18.77;41.62
16613;BME280;8419;52.358;9.752;2022-09-30T00:33:44;100085.00;;;18.68;41.75
16613;BME280;8419;52.358;9.752;2022-09-30T00:36:53;100092.00;;;18.65;41.73
16613;BME280;8419;52.358;9.752;2022-09-30T00:39:39;100088.00;;;18.64;41.75
16613;BME280;8419;52.358;9.752;2022-09-30T00:42:25;100088.00;;;18.64;41.76
16613;BME280;8419;52.358;9.752;2022-09-30T00:45:14;100090.00;;;18.55;41.82
16613;BME280;8419;52.358;9.752;2022-09-30T00:48:04;100092.00;;;18.52;41.84
16613;BME280;8419;52.358;9.752;2022-09-30T00:50:52;100094.00;;;18.45;41.94
16613;BME280;8419;52.358;9.752;2022-09-30T00:53:45;100099.00;;;18.36;42.03
16613;BME280;8419;52.358;9.752;2022-09-30T00:56:35;100103.00;;;18.36;41.99
16613;BME280;8419;52.358;9.752;2022-09-30T00:59:26;100107.00;;;18.33;41.97
16613;BME280;8419;52.358;9.752;2022-09-30T01:02:13;100101.00;;;18.31;41.97
16613;BME280;8419;52.358;9.752;2022-09-30T01:04:59;100102.00;;;18.23;42.05
16613;BME280;8419;52.358;9.752;2022-09-30T01:07:46;100104.00;;;18.17;42.12
16613;BME280;8419;52.358;9.752;2022-09-30T01:10:33;100109.00;;;18.17;42.16
16613;BME280;8419;52.358;9.752;2022-09-30T01:13:20;100112.00;;;18.19;42.08
16613;BME280;8419;52.358;9.752;2022-09-30T01:16:31;100111.00;;;18.12;42.13
16613;BME280;8419;52.358;9.752;2022-09-30T01:19:49;100107.00;;;18.12;42.11
16613;BME280;8419;52.358;9.752;2022-09-30T01:22:44;100102.00;;;18.11;42.08
16613;BME280;8419;52.358;9.752;2022-09-30T01:26:07;100112.00;;;18.11;42.02
16613;BME280;8419;52.358;9.752;2022-09-30T01:36:13;100109.00;;;17.85;42.29
16613;BME280;8419;52.358;9.752;2022-09-30T01:39:08;100102.00;;;17.83;42.27
16613;BME280;8419;52.358;9.752;2022-09-30T01:42:06;100098.00;;;17.78;42.34
16613;BME280;8419;52.358;9.752;2022-09-30T01:45:00;100107.00;;;17.77;42.36
16613;BME280;8419;52.358;9.752;2022-09-30T01:47:54;100107.00;;;17.77;42.33
16613;BME280;8419;52.358;9.752;2022-09-30T01:50:48;100104.00;;;17.75;42.31
16613;BME280;8419;52.358;9.752;2022-09-30T01:53:40;100107.00;;;17.74;42.35
16613;BME280;8419;52.358;9.752;2022-09-30T01:56:33;100111.00;;;17.70;42.38
16613;BME280;8419;52.358;9.752;2022-09-30T01:59:22;100109.00;;;17.69;42.41
16613;BME280;8419;52.358;9.752;2022-09-30T02:02:13;100116.00;;;17.62;42.50
16613;BME280;8419;52.358;9.752;2022-09-30T02:05:06;100116.00;;;17.60;42.47
16613;BME280;8419;52.358;9.752;2022-09-30T02:07:57;100115.00;;;17.55;42.50
16613;BME280;8419;52.358;9.752;2022-09-30T02:10:47;100124.00;;;17.54;42.50
16613;BME280;8419;52.358;9.752;2022-09-30T02:13:40;100123.00;;;17.49;42.50
16613;BME280;8419;52.358;9.752;2022-09-30T02:16:31;100124.00;;;17.39;42.59
16613;BME280;8419;52.358;9.752;2022-09-30T02:19:21;100119.00;;;17.39;42.56
16613;BME280;8419;52.358;9.752;2022-09-30T02:22:15;100116.00;;;17.35;42.54
16613;BME280;8419;52.358;9.752;2022-09-30T02:25:05;100117.00;;;17.32;42.57
16613;BME280;8419;52.358;9.752;2022-09-30T02:27:58;100111.00;;;17.30;42.56
16613;BME280;8419;52.358;9.752;2022-09-30T02:30:49;100123.00;;;17.26;42.61
16613;BME280;8419;52.358;9.752;2022-09-30T02:33:41;100122.00;;;17.22;42.65
16613;BME280;8419;52.358;9.752;2022-09-30T02:36:31;100124.00;;;17.20;42.63
16613;BME280;8419;52.358;9.752;2022-09-30T02:39:24;100126.00;;;17.20;42.62
16613;BME280;8419;52.358;9.752;2022-09-30T02:42:13;100124.00;;;17.20;42.61
16613;BME280;8419;52.358;9.752;2022-09-30T02:45:07;100137.00;;;17.18;42.61
16613;BME280;8419;52.358;9.752;2022-09-30T02:48:09;100140.00;;;17.17;42.68
16613;BME280;8419;52.358;9.752;2022-09-30T02:51:03;100141.00;;;17.17;42.64
16613;BME280;8419;52.358;9.752;2022-09-30T02:53:57;100144.00;;;17.13;42.62
16613;BME280;8419;52.358;9.752;2022-09-30T02:56:52;100138.00;;;17.10;42.67
16613;BME280;8419;52.358;9.752;2022-09-30T02:59:39;100141.00;;;17.04;42.75
16613;BME280;8419;52.358;9.752;2022-09-30T03:02:26;100143.00;;;16.99;42.66
16613;BME280;8419;52.358;9.752;2022-09-30T03:05:12;100145.00;;;16.97;42.70
16613;BME280;8419;52.358;9.752;2022-09-30T03:07:58;100153.00;;;16.96;42.70
16613;BME280;8419;52.358;9.752;2022-09-30T03:10:47;100149.00;;;16.97;42.67
16613;BME280;8419;52.358;9.752;2022-09-30T03:13:58;100157.00;;;16.98;42.67
16613;BME280;8419;52.358;9.752;2022-09-30T03:23:58;100166.00;;;16.94;42.67
16613;BME280;8419;52.358;9.752;2022-09-30T03:26:53;100163.00;;;16.85;42.86
16613;BME280;8419;52.358;9.752;2022-09-30T03:29:48;100177.00;;;16.80;42.93
16613;BME280;8419;52.358;9.752;2022-09-30T03:32:53;100169.00;;;16.78;42.99
16613;BME280;8419;52.358;9.752;2022-09-30T03:35:47;100162.00;;;16.89;42.77
16613;BME280;8419;52.358;9.752;2022-09-30T03:38:45;100167.00;;;16.89;42.72
16613;BME280;8419;52.358;9.752;2022-09-30T03:41:36;100167.00;;;16.87;42.77
16613;BME280;8419;52.358;9.752;2022-09-30T03:44:30;100175.00;;;16.87;42.74
16613;BME280;8419;52.358;9.752;2022-09-30T03:47:19;100169.00;;;16.91;42.67
16613;BME280;8419;52.358;9.752;2022-09-30T03:50:08;100170.00;;;16.84;42.79
16613;BME280;8419;52.358;9.752;2022-09-30T03:52:56;100183.00;;;16.82;42.83
16613;BME280;8419;52.358;9.752;2022-09-30T03:55:47;100183.00;;;16.82;42.79
16613;BME280;8419;52.358;9.752;2022-09-30T03:58:33;100181.00;;;16.81;42.84
16613;BME280;8419;52.358;9.752;2022-09-30T04:01:21;100185.00;;;16.80;42.80
16613;BME280;8419;52.358;9.752;2022-09-30T04:04:07;100187.00;;;16.83;42.71
16613;BME280;8419;52.358;9.752;2022-09-30T04:06:52;100190.00;;;16.80;42.76
16613;BME280;8419;52.358;9.752;2022-09-30T04:09:38;100190.00;;;16.80;42.75
16613;BME280;8419;52.358;9.752;2022-09-30T04:12:25;100194.00;;;16.79;42.75
16613;BME280;8419;52.358;9.752;2022-09-30T04:15:10;100192.00;;;16.78;42.77
16613;BME280;8419;52.358;9.752;2022-09-30T04:17:56;100193.00;;;16.78;42.78
16613;BME280;8419;52.358;9.752;2022-09-30T04:20:42;100199.00;;;16.73;42.86
16613;BME280;8419;52.358;9.752;2022-09-30T04:23:28;100196.00;;;16.68;42.98
16613;BME280;8419;52.358;9.752;2022-09-30T04:26:15;100207.00;;;16.74;42.78
16613;BME280;8419;52.358;9.752;2022-09-30T04:29:01;100201.00;;;16.77;42.79
16613;BME280;8419;52.358;9.752;2022-09-30T04:31:47;100212.00;;;16.65;42.98
16613;BME280;8419;52.358;9.752;2022-09-30T04:34:35;100208.00;;;16.57;43.10
16613;BME280;8419;52.358;9.752;2022-09-30T04:37:20;100211.00;;;16.64;43.05
16613;BME280;8419;52.358;9.752;2022-09-30T04:40:07;100219.00;;;16.72;42.91
16613;BME280;8419;52.358;9.752;2022-09-30T04:42:56;100214.00;;;16.75;42.86
16613;BME280;8419;52.358;9.752;2022-09-30T04:45:43;100217.00;;;16.77;42.76
16613;BME280;8419;52.358;9.752;2022-09-30T04:48:29;100216.00;;;16.70;42.92
16613;BME280;8419;52.358;9.752;2022-09-30T04:51:17;100226.00;;;16.58;43.13
16613;BME280;8419;52.358;9.752;2022-09-30T04:54:04;100216.00;;;16.56;43.22
16613;BME280;8419;52.358;9.752;2022-09-30T04:56:50;100229.00;;;16.67;43.05
16613;BME280;8419;52.358;9.752;2022-09-30T04:59:35;100230.00;;;16.69;42.95
16613;BME280;8419;52.358;9.752;2022-09-30T05:02:21;100229.00;;;16.65;43.05
16613;BME280;8419;52.358;9.752;2022-09-30T05:05:08;100228.00;;;16.65;43.08
16613;BME280;8419;52.358;9.752;2022-09-30T05:07:59;100238.00;;;16.73;42.90
16613;BME280;8419;52.358;9.752;2022-09-30T05:10:53;100242.00;;;16.70;43.01
16613;BME280;8419;52.358;9.752;2022-09-30T05:13:40;100246.00;;;16.75;42.93
16613;BME280;8419;52.358;9.752;2022-09-30T05:16:26;100247.00;;;16.69;43.01
16613;BME280;8419;52.358;9.752;2022-09-30T05:19:12;100252.00;;;16.66;43.05
16613;BME280;8419;52.358;9.752;2022-09-30T05:21:57;100248.00;;;16.67;42.97
16613;BME280;8419;52.358;9.752;2022-09-30T05:24:43;100257.00;;;16.59;43.13
16613;BME280;8419;52.358;9.752;2022-09-30T05:27:33;100248.00;;;16.60;43.04
16613;BME280;8419;52.358;9.752;2022-09-30T05:30:19;100252.00;;;16.59;43.03
16613;BME280;8419;52.358;9.752;2022-09-30T05:33:05;100262.00;;;16.53;43.18
16613;BME280;8419;52.358;9.752;2022-09-30T05:35:51;100264.00;;;16.64;43.02
16613;BME280;8419;52.358;9.752;2022-09-30T05:38:37;100271.00;;;16.58;43.05
16613;BME280;8419;52.358;9.752;2022-09-30T05:41:23;100269.00;;;16.60;43.01
16613;BME280;8419;52.358;9.752;2022-09-30T05:44:09;100275.00;;;16.64;42.92
16613;BME280;8419;52.358;9.752;2022-09-30T05:46:57;100286.00;;;16.60;42.97
16613;BME280;8419;52.358;9.752;2022-09-30T05:49:45;100277.00;;;16.58;43.02
16613;BME280;8419;52.358;9.752;2022-09-30T05:52:32;100285.00;;;16.60;43.00
16613;BME280;8419;52.358;9.752;2022-09-30T05:55:20;100283.00;;;16.67;42.87
16613;BME280;8419;52.358;9.752;2022-09-30T05:58:06;100289.00;;;16.66;42.95
16613;BME280;8419;52.358;9.752;2022-09-30T06:00:52;100287.00;;;16.56;43.18
16613;BME280;8419;52.358;9.752;2022-09-30T06:03:38;100288.00;;;16.55;43.26
16613;BME280;8419;52.358;9.752;2022-09-30T06:06:25;100300.00;;;16.63;43.17
16613;BME280;8419;52.358;9.752;2022-09-30T06:09:12;100307.00;;;16.64;43.18
16613;BME280;8419;52.358;9.752;2022-09-30T06:11:58;100306.00;;;16.66;43.16
16613;BME280;8419;52.358;9.752;2022-09-30T06:14:44;100312.00;;;16.70;43.12
16613;BME280;8419;52.358;9.752;2022-09-30T06:17:30;100323.00;;;16.73;43.04
16613;BME280;8419;52.358;9.752;2022-09-30T06:20:16;100325.00;;;16.76;43.05
16613;BME280;8419;52.358;9.752;2022-09-30T06:23:01;100322.00;;;16.82;42.94
16613;BME280;8419;52.358;9.752;2022-09-30T06:25:50;100330.00;;;16.87;42.91
16613;BME280;8419;52.358;9.752;2022-09-30T06:28:36;100332.00;;;16.90;42.91
16613;BME280;8419;52.358;9.752;2022-09-30T06:31:22;100337.00;;;16.94;42.87
16613;BME280;8419;52.358;9.752;2022-09-30T06:34:07;100328.00;;;16.88;43.08
16613;BME280;8419;52.358;9.752;2022-09-30T06:36:54;100334.00;;;17.03;42.85
16613;BME280;8419;52.358;9.752;2022-09-30T06:39:39;100335.00;;;16.99;42.98
16613;BME280;8419;52.358;9.752;2022-09-30T06:42:25;100334.00;;;17.10;42.78
16613;BME280;8419;52.358;9.752;2022-09-30T06:45:11;100338.00;;;17.10;42.91
16613;BME280;8419;52.358;9.752;2022-09-30T06:47:57;100343.00;;;17.11;42.96
16613;BME280;8419;52.358;9.752;2022-09-30T06:50:44;100345.00;;;17.17;42.94
16613;BME280;8419;52.358;9.752;2022-09-30T06:53:30;100349.00;;;17.33;42.69
16613;BME280;8419;52.358;9.752;2022-09-30T06:56:16;100348.00;;;17.39;42.64
16613;BME280;8419;52.358;9.752;2022-09-30T06:59:02;100348.00;;;17.41;42.75
16613;BME280;8419;52.358;9.752;2022-09-30T07:01:49;100341.00;;;17.45;42.77
16613;BME280;8419;52.358;9.752;2022-09-30T07:04:34;100346.00;;;17.51;42.69
16613;BME280;8419;52.358;9.752;2022-09-30T07:07:20;100357.00;;;17.62;42.64
16613;BME280;8419;52.358;9.752;2022-09-30T07:10:08;100356.00;;;17.79;42.35
16613;BME280;8419;52.358;9.752;2022-09-30T07:12:54;100359.00;;;17.88;42.25
16613;BME280;8419;52.358;9.752;2022-09-30T07:15:41;100351.00;;;17.91;42.28
16613;BME280;8419;52.358;9.752;2022-09-30T07:18:27;100351.00;;;17.97;42.26
16613;BME280;8419;52.358;9.752;2022-09-30T07:21:14;100358.00;;;18.05;42.22
16613;BME280;8419;52.358;9.752;2022-09-30T07:24:00;100365.00;;;18.07;42.27
16613;BME280;8419;52.358;9.752;2022-09-30T07:26:47;100365.00;;;18.16;42.20
16613;BME280;8419;52.358;9.752;2022-09-30T07:29:32;100367.00;;;18.15;42.33
16613;BME280;8419;52.358;9.752;2022-09-30T07:32:18;100362.00;;;18.22;42.32
16613;BME280;8419;52.358;9.752;2022-09-30T07:35:06;100373.00;;;18.31;42.25
16613;BME280;8419;52.358;9.752;2022-09-30T07:37:51;100364.00;;;18.37;42.25
16613;BME280;8419;52.358;9.752;2022-09-30T07:40:37;100372.00;;;18.45;42.17
16613;BME280;8419;52.358;9.752;2022-09-30T07:43:24;100371.00;;;18.49;42.15
16613;BME280;8419;52.358;9.752;2022-09-30T07:46:12;100367.00;;;18.53;42.18
16613;BME280;8419;52.358;9.752;2022-09-30T07:48:59;100362.00;;;18.61;42.14
16613;BME280;8419;52.358;9.752;2022-09-30T07:51:50;100369.00;;;18.69;42.17
16613;BME280;8419;52.358;9.752;2022-09-30T07:54:36;100362.00;;;18.74;42.14
16613;BME280;8419;52.358;9.752;2022-09-30T07:57:22;100377.00;;;18.89;42.00
16613;BME280;8419;52.358;9.752;2022-09-30T08:00:10;100375.00;;;18.93;42.07
16613;BME280;8419;52.358;9.752;2022-09-30T08:02:55;100377.00;;;19.03;41.99
16613;BME280;8419;52.358;9.752;2022-09-30T08:05:43;100381.00;;;19.13;41.90
16613;BME280;8419;52.358;9.752;2022-09-30T08:08:29;100379.00;;;19.21;41.86
16613;BME280;8419;52.358;9.752;2022-09-30T08:11:14;100384.00;;;19.24;41.93
16613;BME280;8419;52.358;9.752;2022-09-30T08:14:00;100382.00;;;19.32;41.88
16613;BME280;8419;52.358;9.752;2022-09-30T08:16:46;100382.00;;;19.41;41.81
16613;BME280;8419;52.358;9.752;2022-09-30T08:19:32;100383.00;;;19.51;41.74
16613;BME280;8419;52.358;9.752;2022-09-30T08:22:19;100382.00;;;19.60;41.65
16613;BME280;8419;52.358;9.752;2022-09-30T08:25:07;100389.00;;;19.69;41.57
16613;BME280;8419;52.358;9.752;2022-09-30T08:27:54;100383.00;;;19.81;41.43
16613;BME280;8419;52.358;9.752;2022-09-30T08:30:40;100387.00;;;19.95;41.25
16613;BME280;8419;52.358;9.752;2022-09-30T08:33:25;100395.00;;;20.01;41.25
16613;BME280;8419;52.358;9.752;2022-09-30T08:36:13;100400.00;;;20.12;41.16
16613;BME280;8419;52.358;9.752;2022-09-30T08:38:59;100396.00;;;20.28;40.98
16613;BME280;8419;52.358;9.752;2022-09-30T08:42:05;100391.00;;;20.44;40.78
16613;BME280;8419;52.358;9.752;2022-09-30T08:45:01;100397.00;;;20.57;40.74
16613;BME280;8419;52.358;9.752;2022-09-30T08:47:58;100395.00;;;20.66;40.67
16613;BME280;8419;52.358;9.752;2022-09-30T08:50:55;100403.00;;;20.83;40.48
16613;BME280;8419;52.358;9.752;2022-09-30T08:53:47;100393.00;;;20.98;40.36
16613;BME280;8419;52.358;9.752;2022-09-30T08:56:34;100399.00;;;21.14;40.19
16613;BME280;8419;52.358;9.752;2022-09-30T08:59:28;100398.00;;;21.30;40.04
16613;BME280;8419;52.358;9.752;2022-09-30T09:02:19;100397.00;;;21.51;39.83
16613;BME280;8419;52.358;9.752;2022-09-30T09:05:09;100402.00;;;21.66;39.69
16613;BME280;8419;52.358;9.752;2022-09-30T09:08:02;100408.00;;;21.91;39.35
16613;BME280;8419;52.358;9.752;2022-09-30T09:10:54;100401.00;;;21.95;39.36
16613;BME280;8419;52.358;9.752;2022-09-30T09:13:49;100403.00;;;22.04;39.38
16613;BME280;8419;52.358;9.752;2022-09-30T09:16:40;100408.00;;;22.23;39.11
16613;BME280;8419;52.358;9.752;2022-09-30T09:19:35;100408.00;;;22.38;39.02
16613;BME280;8419;52.358;9.752;2022-09-30T09:22:21;100414.00;;;22.51;38.87
16613;BME280;8419;52.358;9.752;2022-09-30T09:25:12;100416.00;;;22.55;38.87
16613;BME280;8419;52.358;9.752;2022-09-30T09:28:00;100413.00;;;22.68;38.80
16613;BME280;8419;52.358;9.752;2022-09-30T09:30:50;100413.00;;;22.86;38.55
16613;BME280;8419;52.358;9.752;2022-09-30T09:33:38;100425.00;;;22.95;38.48
16613;BME280;8419;52.358;9.752;2022-09-30T09:36:34;100411.00;;;23.09;38.33
16613;BME280;8419;52.358;9.752;2022-09-30T09:39:46;100413.00;;;23.27;38.11
16613;BME280;8419;52.358;9.752;2022-09-30T09:42:51;100415.00;;;23.34;38.07
16613;BME280;8419;52.358;9.752;2022-09-30T09:45:43;100416.00;;;23.36;38.05
16613;BME280;8419;52.358;9.752;2022-09-30T09:48:33;100414.00;;;23.47;37.89
16613;BME280;8419;52.358;9.752;2022-09-30T09:51:27;100416.00;;;23.69;37.59
16613;BME280;8419;52.358;9.752;2022-09-30T09:54:16;100416.00;;;23.72;37.30
16613;BME280;8419;52.358;9.752;2022-09-30T09:57:06;100414.00;;;23.78;36.71
16613;BME280;8419;52.358;9.752;2022-09-30T09:59:55;100416.00;;;23.85;36.61
16613;BME280;8419;52.358;9.752;2022-09-30T10:02:42;100413.00;;;23.93;36.22
16613;BME280;8419;52.358;9.752;2022-09-30T10:05:28;100413.00;;;23.96;35.96
16613;BME280;8419;52.358;9.752;2022-09-30T10:08:23;100407.00;;;23.99;35.42
16613;BME280;8419;52.358;9.752;2022-09-30T10:11:21;100417.00;;;23.95;35.19
16613;BME280;8419;52.358;9.752;2022-09-30T10:14:14;100411.00;;;24.02;34.64
16613;BME280;8419;52.358;9.752;2022-09-30T10:17:02;100405.00;;;24.04;34.26
16613;BME280;8419;52.358;9.752;2022-09-30T10:19:51;100407.00;;;24.09;34.19
16613;BME280;8419;52.358;9.752;2022-09-30T10:22:38;100395.00;;;24.10;33.66
16613;BME280;8419;52.358;9.752;2022-09-30T10:25:24;100401.00;;;24.18;33.37
16613;BME280;8419;52.358;9.752;2022-09-30T10:28:22;100412.00;;;24.19;33.14
16613;BME280;8419;52.358;9.752;2022-09-30T10:31:21;100413.00;;;24.26;33.20
16613;BME280;8419;52.358;9.752;2022-09-30T10:34:11;100406.00;;;24.25;33.07
16613;BME280;8419;52.358;9.752;2022-09-30T10:37:08;100413.00;;;24.35;32.94
16613;BME280;8419;52.358;9.752;2022-09-30T10:39:59;100412.00;;;24.38;32.78
16613;BME280;8419;52.358;9.752;2022-09-30T10:42:47;100404.00;;;24.46;32.69
16613;BME280;8419;52.358;9.752;2022-09-30T10:45:36;100403.00;;;24.38;32.55
16613;BME280;8419;52.358;9.752;2022-09-30T10:48:23;100406.00;;;24.31;32.20
16613;BME280;8419;52.358;9.752;2022-09-30T10:51:23;100414.00;;;24.34;32.09
16613;BME280;8419;52.358;9.752;2022-09-30T10:54:34;100402.00;;;24.30;31.76
16613;BME280;8419;52.358;9.752;2022-09-30T10:57:24;100406.00;;;24.34;31.44
16613;BME280;8419;52.358;9.752;2022-09-30T11:00:14;100408.00;;;24.19;31.71
16613;BME280;8419;52.358;9.752;2022-09-30T11:03:07;100410.00;;;24.21;31.49
16613;BME280;8419;52.358;9.752;2022-09-30T11:05:56;100407.00;;;24.28;31.48
16613;BME280;8419;52.358;9.752;2022-09-30T11:08:47;100412.00;;;24.44;31.46
16613;BME280;8419;52.358;9.752;2022-09-30T11:11:40;100409.00;;;24.67;31.27
16613;BME280;8419;52.358;9.752;2022-09-30T11:14:37;100412.00;;;24.77;31.24
16613;BME280;8419;52.358;9.752;2022-09-30T11:17:32;100420.00;;;25.00;31.05
16613;BME280;8419;52.358;9.752;2022-09-30T11:20:24;100414.00;;;25.12;30.96
16613;BME280;8419;52.358;9.752;2022-09-30T11:23:17;100416.00;;;25.12;31.02
16613;BME280;8419;52.358;9.752;2022-09-30T11:26:09;100407.00;;;25.29;30.82
16613;BME280;8419;52.358;9.752;2022-09-30T11:29:07;100411.00;;;25.31;30.69
16613;BME280;8419;52.358;9.752;2022-09-30T11:32:03;100418.00;;;25.55;30.52
16613;BME280;8419;52.358;9.752;2022-09-30T11:35:00;100415.00;;;25.74;30.31
16613;BME280;8419;52.358;9.752;2022-09-30T11:37:59;100411.00;;;26.03;30.15
16613;BME280;8419;52.358;9.752;2022-09-30T11:40:57;100413.00;;;26.25;29.92
16613;BME280;8419;52.358;9.752;2022-09-30T11:43:54;100409.00;;;26.38;29.22
16613;BME280;8419;52.358;9.752;2022-09-30T11:47:09;100409.00;;;26.49;28.72
16613;BME280;8419;52.358;9.752;2022-09-30T11:50:22;100402.00;;;26.69;27.96
16613;BME280;8419;52.358;9.752;2022-09-30T11:53:20;100394.00;;;26.53;27.87
16613;BME280;8419;52.358;9.752;2022-09-30T11:56:18;100401.00;;;26.59;27.59
16613;BME280;8419;52.358;9.752;2022-09-30T11:59:14;100401.00;;;26.76;27.21
16613;BME280;8419;52.358;9.752;2022-09-30T12:02:08;100393.00;;;26.90;27.15
16613;BME280;8419;52.358;9.752;2022-09-30T12:05:00;100400.00;;;26.81;27.15
16613;BME280;8419;52.358;9.752;2022-09-30T12:07:50;100399.00;;;27.01;26.87
16613;BME280;8419;52.358;9.752;2022-09-30T12:10:41;100397.00;;;27.29;26.45
16613;BME280;8419;52.358;9.752;2022-09-30T12:13:30;100392.00;;;27.55;26.18
16613;BME280;8419;52.358;9.752;2022-09-30T12:16:17;100388.00;;;27.72;26.06
16613;BME280;8419;52.358;9.752;2022-09-30T12:19:13;100392.00;;;28.06;26.00
16613;BME280;8419;52.358;9.752;2022-09-30T12:22:10;100391.00;;;28.43;25.57
16613;BME280;8419;52.358;9.752;2022-09-30T12:24:56;100389.00;;;28.39;25.62
16613;BME280;8419;52.358;9.752;2022-09-30T12:27:44;100393.00;;;28.34;24.79
16613;BME280;8419;52.358;9.752;2022-09-30T12:30:31;100390.00;;;28.67;24.73
16613;BME280;8419;52.358;9.752;2022-09-30T12:33:33;100392.00;;;28.81;24.38
16613;BME280;8419;52.358;9.752;2022-09-30T12:36:33;100382.00;;;29.16;24.34
16613;BME280;8419;52.358;9.752;2022-09-30T12:39:46;100394.00;;;29.71;24.07
16613;BME280;8419;52.358;9.752;2022-09-30T12:43:07;100381.00;;;29.42;23.54
16613;BME280;8419;52.358;9.752;2022-09-30T12:46:15;100386.00;;;29.58;23.77
16613;BME280;8419;52.358;9.752;2022-09-30T12:49:05;100390.00;;;29.82;23.33
16613;BME280;8419;52.358;9.752;2022-09-30T12:51:56;100392.00;;;29.44;23.32
16613;BME280;8419;52.358;9.752;2022-09-30T12:54:47;100385.00;;;28.88;23.69
16613;BME280;8419;52.358;9.752;2022-09-30T12:57:39;100385.00;;;28.61;24.14
16613;BME280;8419;52.358;9.752;2022-09-30T13:00:29;100375.00;;;27.92;24.87
16613;BME280;8419;52.358;9.752;2022-09-30T13:03:18;100378.00;;;28.24;24.70
16613;BME280;8419;52.358;9.752;2022-09-30T13:06:04;100368.00;;;28.67;24.49
16613;BME280;8419;52.358;9.752;2022-09-30T13:09:18;100373.00;;;29.41;24.01
16613;BME280;8419;52.358;9.752;2022-09-30T13:12:26;100377.00;;;30.22;23.11
16613;BME280;8419;52.358;9.752;2022-09-30T13:15:40;100371.00;;;30.71;22.76
16613;BME280;8419;52.358;9.752;2022-09-30T13:19:00;100368.00;;;31.17;22.35
16613;BME280;8419;52.358;9.752;2022-09-30T13:21:46;100362.00;;;31.12;22.31
16613;BME280;8419;52.358;9.752;2022-09-30T13:25:10;100357.00;;;30.69;22.76
16613;BME280;8419;52.358;9.752;2022-09-30T13:28:26;100357.00;;;30.62;22.89
16613;BME280;8419;52.358;9.752;2022-09-30T13:31:15;100357.00;;;30.26;23.38
16613;BME280;8419;52.358;9.752;2022-09-30T13:34:09;100350.00;;;29.96;23.68
16613;BME280;8419;52.358;9.752;2022-09-30T13:36:59;100357.00;;;29.85;23.73
16613;BME280;8419;52.358;9.752;2022-09-30T13:39:47;100354.00;;;29.39;24.19
16613;BME280;8419;52.358;9.752;2022-09-30T13:42:40;100359.00;;;29.04;24.50
16613;BME280;8419;52.358;9.752;2022-09-30T13:45:34;100353.00;;;28.77;24.68
16613;BME280;8419;52.358;9.752;2022-09-30T13:48:28;100352.00;;;28.52;24.90
16613;BME280;8419;52.358;9.752;2022-09-30T13:51:16;100348.00;;;28.22;24.92
16613;BME280;8419;52.358;9.752;2022-09-30T13:54:07;100346.00;;;28.24;24.96
16613;BME280;8419;52.358;9.752;2022-09-30T13:56:56;100341.00;;;28.15;24.87
16613;BME280;8419;52.358;9.752;2022-09-30T13:59:51;100348.00;;;27.81;25.22
16613;BME280;8419;52.358;9.752;2022-09-30T14:02:58;100336.00;;;27.41;25.56
16613;BME280;8419;52.358;9.752;2022-09-30T14:05:58;100341.00;;;27.05;25.92
16613;BME280;8419;52.358;9.752;2022-09-30T14:09:17;100341.00;;;26.79;26.10
16613;BME280;8419;52.358;9.752;2022-09-30T14:12:17;100337.00;;;26.83;26.09
16613;BME280;8419;52.358;9.752;2022-09-30T14:15:21;100341.00;;;26.80;25.91
16613;BME280;8419;52.358;9.752;2022-09-30T14:18:36;100347.00;;;26.62;26.05
16613;BME280;8419;52.358;9.752;2022-09-30T14:21:34;100337.00;;;26.43;26.14
16613;BME280;8419;52.358;9.752;2022-09-30T14:24:25;100342.00;;;26.42;26.27
16613;BME280;8419;52.358;9.752;2022-09-30T14:27:22;100340.00;;;26.39;26.00
16613;BME280;8419;52.358;9.752;2022-09-30T14:30:15;100330.00;;;26.42;26.07
16613;BME280;8419;52.358;9.752;2022-09-30T14:33:09;100340.00;;;26.62;25.98
16613;BME280;8419;52.358;9.752;2022-09-30T14:35:59;100333.00;;;26.75;25.84
16613;BME280;8419;52.358;9.752;2022-09-30T14:38:51;100331.00;;;26.85;25.80
16613;BME280;8419;52.358;9.752;2022-09-30T14:41:47;100333.00;;;26.87;25.79
16613;BME280;8419;52.358;9.752;2022-09-30T14:44:35;100325.00;;;26.88;25.78
16613;BME280;8419;52.358;9.752;2022-09-30T14:47:21;100324.00;;;26.91;25.62
16613;BME280;8419;52.358;9.752;2022-09-30T14:50:14;100328.00;;;26.61;25.87
16613;BME280;8419;52.358;9.752;2022-09-30T14:53:04;100322.00;;;26.44;25.94
16613;BME280;8419;52.358;9.752;2022-09-30T14:55:49;100319.00;;;26.42;25.97
16613;BME280;8419;52.358;9.752;2022-09-30T14:58:39;100314.00;;;26.33;26.11
16613;BME280;8419;52.358;9.752;2022-09-30T15:01:29;100312.00;;;26.30;26.23
16613;BME280;8419;52.358;9.752;2022-09-30T15:04:23;100314.00;;;26.39;26.19
16613;BME280;8419;52.358;9.752;2022-09-30T15:07:11;100314.00;;;26.36;26.21
16613;BME280;8419;52.358;9.752;2022-09-30T15:10:00;100318.00;;;26.33;26.31
16613;BME280;8419;52.358;9.752;2022-09-30T15:12:48;100319.00;;;26.32;26.39
16613;BME280;8419;52.358;9.752;2022-09-30T15:15:35;100306.00;;;26.36;26.32
16613;BME280;8419;52.358;9.752;2022-09-30T15:18:29;100305.00;;;26.37;26.29
16613;BME280;8419;52.358;9.752;2022-09-30T15:21:16;100301.00;;;26.66;26.04